Time;durP1;ratioP1;P1;durP2;ratioP2;P2;SDS_P1;SDS_P2;PMS_P1;PMS_P2;Temp;Humidity;BMP_temperature;BMP_pressure;BME280_temperature;BME280_humidity;BME280_pressure;Samples;Min_cycle;Max_cycle;Signal;HPM_P1;HPM_P2
2022/12/09 00:00:14;;;;;;;21.77;15.87;;;3.10;98.10;;;;;;4980997;28;20194;-82
2022/12/09 00:02:40;;;;;;;27.00;17.37;;;3.00;99.30;;;;;;4997845;28;20171;-82
2022/12/09 00:05:06;;;;;;;22.20;15.20;;;3.00;99.90;;;;;;4997836;28;20528;-84
2022/12/09 00:07:34;;;;;;;22.07;15.43;;;2.90;99.90;;;;;;4997642;28;20565;-85
2022/12/09 00:10:00;;;;;;;22.60;17.47;;;2.90;99.90;;;;;;4997651;28;20643;-81
2022/12/09 00:12:25;;;;;;;22.97;16.40;;;3.00;99.90;;;;;;4997560;28;20206;-84
2022/12/09 00:14:51;;;;;;;23.30;16.07;;;3.00;99.90;;;;;;4996637;28;20576;-83
2022/12/09 00:17:17;;;;;;;23.37;17.60;;;2.90;99.60;;;;;;4996819;28;20246;-83
2022/12/09 00:19:42;;;;;;;21.43;16.97;;;2.80;99.90;;;;;;4979737;28;20179;-81
2022/12/09 00:22:08;;;;;;;25.60;17.43;;;2.80;99.90;;;;;;5000796;28;20301;-80
2022/12/09 00:24:33;;;;;;;25.20;17.90;;;2.90;99.90;;;;;;5014948;28;20198;-83
2022/12/09 00:26:59;;;;;;;25.60;18.70;;;2.90;99.90;;;;;;5011993;28;20179;-82
2022/12/09 00:29:25;;;;;;;26.73;19.27;;;2.90;99.90;;;;;;5002851;28;20186;-81
2022/12/09 00:31:50;;;;;;;27.77;18.50;;;3.00;99.80;;;;;;4999808;28;20210;-83
2022/12/09 00:34:20;;;;;;;28.07;19.40;;;3.20;99.20;;;;;;4998990;28;20245;-83
2022/12/09 00:36:46;;;;;;;28.60;19.63;;;3.00;96.90;;;;;;4997617;28;20647;-81
2022/12/09 00:39:12;;;;;;;26.27;19.07;;;2.90;97.60;;;;;;4997371;28;20203;-82
2022/12/09 00:41:37;;;;;;;24.40;18.57;;;3.00;98.50;;;;;;4980741;28;20177;-83
2022/12/09 00:44:04;;;;;;;24.90;18.57;;;2.90;98.60;;;;;;4998250;28;20194;-83
2022/12/09 00:46:30;;;;;;;28.70;17.93;;;2.90;98.90;;;;;;4981099;28;20206;-82
2022/12/09 00:48:55;;;;;;;25.83;18.70;;;2.90;98.90;;;;;;5011295;28;20155;-82
2022/12/09 00:51:23;;;;;;;28.83;19.43;;;2.80;99.30;;;;;;5020385;28;20159;-81
2022/12/09 00:53:54;;;;;;;24.60;17.67;;;3.00;98.50;;;;;;5005110;28;20207;-82
2022/12/09 00:56:27;;;;;;;29.03;19.23;;;3.00;96.60;;;;;;4999758;28;20510;-81
2022/12/09 00:58:58;;;;;;;26.33;17.87;;;2.90;94.60;;;;;;5013770;28;20171;-82
2022/12/09 01:01:25;;;;;;;28.10;19.87;;;2.60;94.30;;;;;;5013111;28;20221;-83
2022/12/09 01:03:50;;;;;;;27.63;19.20;;;2.50;96.70;;;;;;4998455;28;20171;-82
2022/12/09 01:06:19;;;;;;;27.63;20.60;;;2.50;97.70;;;;;;4998103;28;20163;-82
2022/12/09 01:08:46;;;;;;;27.83;20.07;;;2.70;98.50;;;;;;4997823;28;20167;-81
2022/12/09 01:11:15;;;;;;;29.23;20.60;;;2.80;95.80;;;;;;4997893;28;20178;-84
2022/12/09 01:13:41;;;;;;;29.73;20.97;;;3.00;93.20;;;;;;4998686;28;20195;-82
2022/12/09 01:16:19;;;;;;;31.63;21.03;;;2.90;91.40;;;;;;4997534;28;20250;-83
2022/12/09 01:18:45;;;;;;;29.27;20.97;;;2.50;91.60;;;;;;5004199;28;20186;-82
2022/12/09 01:21:12;;;;;;;33.47;21.13;;;2.50;94.00;;;;;;4996393;28;20180;-80
2022/12/09 01:23:37;;;;;;;27.93;19.90;;;2.40;95.90;;;;;;5009874;28;20620;-80
2022/12/09 01:26:05;;;;;;;26.70;20.00;;;2.40;97.50;;;;;;5002508;28;20179;-82
2022/12/09 01:29:18;;;;;;;31.77;21.13;;;2.40;98.70;;;;;;4996913;28;20246;-80
2022/12/09 01:31:46;;;;;;;29.57;20.07;;;2.60;98.60;;;;;;4998117;28;20241;-80
2022/12/09 01:34:15;;;;;;;28.30;20.50;;;2.70;98.10;;;;;;4997282;28;20201;-80
2022/12/09 01:36:40;;;;;;;30.93;21.13;;;2.70;96.90;;;;;;4995769;28;20179;-81
2022/12/09 01:39:06;;;;;;;29.33;20.53;;;2.50;96.50;;;;;;4995555;28;20187;-80
2022/12/09 01:41:33;;;;;;;28.77;19.73;;;2.40;96.50;;;;;;4995928;28;20245;-79
2022/12/09 01:44:25;;;;;;;31.90;20.40;;;2.50;97.60;;;;;;4978602;28;20638;-80
2022/12/09 01:46:55;;;;;;;30.40;20.13;;;2.20;98.20;;;;;;4978546;28;20171;-78
2022/12/09 01:49:30;;;;;;;29.13;19.97;;;2.20;99.60;;;;;;4996207;28;20202;-79
2022/12/09 01:52:08;;;;;;;28.53;19.47;;;2.40;99.90;;;;;;4995644;28;20258;-79
2022/12/09 01:54:34;;;;;;;31.90;20.57;;;2.40;98.70;;;;;;4995416;28;20600;-79
2022/12/09 01:57:00;;;;;;;32.33;20.80;;;2.30;98.10;;;;;;4978425;28;20191;-81
2022/12/09 01:59:27;;;;;;;28.67;20.33;;;2.30;97.90;;;;;;4995802;28;20223;-81
2022/12/09 02:01:57;;;;;;;28.07;19.90;;;2.10;98.10;;;;;;4995254;28;20592;-79
2022/12/09 02:04:24;;;;;;;31.23;20.17;;;2.10;98.70;;;;;;4978344;28;20198;-78
2022/12/09 02:06:50;;;;;;;31.23;20.63;;;2.00;99.50;;;;;;4995159;28;20179;-82
2022/12/09 02:09:16;;;;;;;34.10;20.57;;;1.90;99.90;;;;;;4994958;28;20648;-81
2022/12/09 02:11:56;;;;;;;32.00;21.37;;;1.80;99.90;;;;;;4995398;28;20202;-82
2022/12/09 02:14:38;;;;;;;33.73;20.50;;;1.70;99.90;;;;;;4994528;28;20289;-82
2022/12/09 02:17:31;;;;;;;31.07;20.50;;;1.80;99.90;;;;;;4977511;28;20175;-81
2022/12/09 02:20:24;;;;;;;33.70;20.50;;;1.80;99.90;;;;;;4995496;28;20171;-82
2022/12/09 02:23:25;;;;;;;32.90;20.07;;;1.80;99.90;;;;;;4983898;28;20179;-82
2022/12/09 02:26:03;;;;;;;34.20;20.33;;;1.90;99.90;;;;;;4983281;28;20187;-82
2022/12/09 02:28:34;;;;;;;35.90;20.43;;;1.80;99.90;;;;;;4994229;28;20213;-82
2022/12/09 02:31:27;;;;;;;32.47;20.97;;;1.70;99.90;;;;;;4994964;28;20639;-82
2022/12/09 02:33:59;;;;;;;33.83;22.00;;;1.70;99.90;;;;;;4977564;28;20340;-82
2022/12/09 02:36:28;;;;;;;38.30;22.97;;;1.70;99.90;;;;;;4995447;28;20167;-81
2022/12/09 02:38:56;;;;;;;42.10;25.10;;;1.70;99.90;;;;;;5007790;28;20307;-82
2022/12/09 02:41:26;;;;;;;60.40;38.03;;;1.80;99.90;;;;;;5018357;28;20179;-81
2022/12/09 02:44:11;;;;;;;77.07;48.50;;;1.80;99.90;;;;;;5017498;28;20155;-76
2022/12/09 02:46:46;;;;;;;81.33;50.23;;;1.80;99.90;;;;;;5015687;28;20210;-81
2022/12/09 02:49:20;;;;;;;75.67;50.13;;;1.70;99.90;;;;;;5008875;28;20185;-81
2022/12/09 02:51:53;;;;;;;68.30;46.40;;;1.70;99.90;;;;;;4997354;28;20225;-80
2022/12/09 02:54:24;;;;;;;62.70;41.73;;;1.80;99.90;;;;;;4995251;28;20663;-82
2022/12/09 02:57:01;;;;;;;57.73;37.30;;;1.80;99.90;;;;;;4994806;28;20191;-81
2022/12/09 02:59:27;;;;;;;52.43;34.90;;;1.70;99.90;;;;;;4977286;28;20237;-83
2022/12/09 03:02:11;;;;;;;50.67;32.07;;;1.80;99.90;;;;;;4994726;28;20179;-82
2022/12/09 03:04:39;;;;;;;43.43;27.73;;;1.90;99.90;;;;;;4976334;28;20179;-82
2022/12/09 03:07:39;;;;;;;48.00;28.37;;;1.90;99.90;;;;;;4994642;28;20221;-82
2022/12/09 03:11:00;;;;;;;36.27;23.83;;;1.90;99.90;;;;;;4931692;28;20218;-83
2022/12/09 03:13:32;;;;;;;39.53;22.63;;;1.70;99.90;;;;;;4955648;28;20207;-82
2022/12/09 03:16:27;;;;;;;37.23;24.30;;;1.70;99.90;;;;;;5016344;28;20238;-80
2022/12/09 03:19:19;;;;;;;43.57;24.13;;;1.70;99.90;;;;;;5002060;28;20154;-82
2022/12/09 03:21:55;;;;;;;40.67;24.17;;;1.80;99.90;;;;;;4973965;28;20179;-80
2022/12/09 03:24:27;;;;;;;40.23;23.90;;;1.90;99.90;;;;;;5018207;28;20151;-82
2022/12/09 03:26:53;;;;;;;39.07;23.07;;;2.00;99.90;;;;;;5018621;28;20152;-82
2022/12/09 03:29:23;;;;;;;38.33;23.27;;;2.00;99.90;;;;;;5014211;28;20191;-82
2022/12/09 03:31:55;;;;;;;37.33;23.40;;;2.10;99.90;;;;;;5005578;28;20171;-85
2022/12/09 03:35:09;;;;;;;37.80;22.20;;;2.10;99.90;;;;;;4994399;28;20302;-82
2022/12/09 03:37:38;;;;;;;38.67;22.10;;;2.10;99.90;;;;;;5001603;28;20262;-82
2022/12/09 03:40:09;;;;;;;36.03;23.03;;;2.10;99.90;;;;;;4995751;28;20616;-81
2022/12/09 03:42:53;;;;;;;36.50;22.40;;;2.20;99.90;;;;;;4994442;28;20507;-83
2022/12/09 03:45:22;;;;;;;48.53;21.23;;;2.30;99.90;;;;;;4993524;28;20171;-81
2022/12/09 03:47:48;;;;;;;31.63;21.53;;;2.20;98.60;;;;;;4993868;28;20628;-80
2022/12/09 03:50:14;;;;;;;38.53;21.80;;;2.30;97.80;;;;;;5000292;28;20171;-79
2022/12/09 03:52:44;;;;;;;167.90;29.20;;;2.30;97.10;;;;;;5003401;28;20303;-79
2022/12/09 03:55:33;;;;;;;41.37;23.37;;;2.20;95.00;;;;;;5002674;28;20206;-80
2022/12/09 03:58:00;;;;;;;64.97;23.33;;;2.20;94.10;;;;;;4995032;28;20185;-83
2022/12/09 04:00:26;;;;;;;33.90;21.80;;;1.90;94.10;;;;;;4993615;28;20691;-80
2022/12/09 04:02:51;;;;;;;43.30;22.73;;;1.80;96.80;;;;;;4993605;28;20179;-79
2022/12/09 04:05:19;;;;;;;42.90;22.23;;;1.80;98.80;;;;;;4976069;28;20182;-79
2022/12/09 04:07:45;;;;;;;37.73;23.20;;;1.80;99.90;;;;;;4975949;28;20179;-79
2022/12/09 04:10:10;;;;;;;39.07;22.53;;;1.70;99.90;;;;;;4993417;28;20244;-79
2022/12/09 04:12:38;;;;;;;43.37;21.93;;;1.60;99.90;;;;;;4993575;28;20254;-78
2022/12/09 04:15:05;;;;;;;34.47;21.20;;;1.80;99.90;;;;;;4993040;28;20210;-80
2022/12/09 04:17:30;;;;;;;44.50;22.77;;;1.80;99.90;;;;;;4993395;28;20170;-79
2022/12/09 04:19:56;;;;;;;41.20;22.63;;;1.70;99.90;;;;;;4993595;28;20175;-83
2022/12/09 04:22:22;;;;;;;62.63;23.23;;;1.70;99.90;;;;;;4975167;28;20187;-79
2022/12/09 04:24:47;;;;;;;40.50;22.47;;;1.70;99.90;;;;;;4993505;28;20183;-78
2022/12/09 04:27:13;;;;;;;54.70;23.67;;;1.70;99.90;;;;;;4993814;28;20643;-79
2022/12/09 04:29:40;;;;;;;46.90;22.77;;;1.70;99.90;;;;;;4992602;28;20522;-78
2022/12/09 04:32:05;;;;;;;34.87;21.40;;;1.70;99.90;;;;;;4992450;28;20628;-79
2022/12/09 04:34:32;;;;;;;37.50;20.10;;;1.70;99.90;;;;;;4992528;28;20213;-78
2022/12/09 04:36:58;;;;;;;55.30;22.53;;;1.70;99.90;;;;;;4995121;28;20181;-78
2022/12/09 04:39:24;;;;;;;166.57;26.23;;;1.80;99.90;;;;;;4979843;28;20297;-80
2022/12/09 04:41:50;;;;;;;71.63;22.07;;;1.90;99.90;;;;;;4997077;28;20739;-78
2022/12/09 04:44:15;;;;;;;51.07;23.13;;;1.90;99.90;;;;;;4979562;28;20360;-78
2022/12/09 04:46:41;;;;;;;37.40;23.70;;;1.90;99.90;;;;;;4996172;28;20693;-78
2022/12/09 04:49:07;;;;;;;41.87;22.10;;;1.70;99.90;;;;;;4979499;28;20631;-79
2022/12/09 04:51:32;;;;;;;135.23;24.17;;;1.90;99.90;;;;;;4996562;28;20182;-82
2022/12/09 04:53:58;;;;;;;58.90;22.60;;;1.90;99.90;;;;;;4996812;28;20199;-81
2022/12/09 04:56:24;;;;;;;79.27;22.13;;;1.80;99.90;;;;;;4996676;28;20190;-80
2022/12/09 04:58:50;;;;;;;53.80;21.70;;;1.80;99.90;;;;;;4996345;28;20225;-82
2022/12/09 05:01:19;;;;;;;147.57;26.47;;;1.80;99.90;;;;;;4996400;28;20179;-82
2022/12/09 05:03:52;;;;;;;100.57;23.37;;;1.80;99.90;;;;;;4979128;28;20313;-80
2022/12/09 05:06:19;;;;;;;198.23;29.37;;;1.80;99.90;;;;;;4996864;28;20251;-82
2022/12/09 05:08:45;;;;;;;77.57;24.37;;;1.60;99.90;;;;;;4979236;28;20273;-81
2022/12/09 05:11:12;;;;;;;92.60;24.97;;;1.70;99.90;;;;;;4978912;28;20325;-82
2022/12/09 05:13:44;;;;;;;58.07;21.83;;;1.50;99.90;;;;;;4999273;28;20226;-83
2022/12/09 05:16:14;;;;;;;47.67;21.37;;;1.50;99.90;;;;;;4983440;28;20175;-81
2022/12/09 05:18:40;;;;;;;74.67;21.43;;;1.50;99.90;;;;;;4998513;28;20163;-82
2022/12/09 05:21:08;;;;;;;121.47;25.30;;;1.60;99.90;;;;;;4997379;28;20175;-82
2022/12/09 05:23:35;;;;;;;78.70;22.93;;;1.50;99.90;;;;;;4996124;28;20262;-83
2022/12/09 05:26:06;;;;;;;155.70;24.47;;;1.50;99.90;;;;;;4979222;28;20182;-81
2022/12/09 05:28:33;;;;;;;160.20;26.30;;;1.50;99.90;;;;;;4996207;28;20202;-79
2022/12/09 05:31:04;;;;;;;144.73;26.27;;;1.70;99.90;;;;;;4978942;28;20171;-81
2022/12/09 05:33:30;;;;;;;79.13;24.87;;;1.60;99.90;;;;;;4996365;28;20568;-82
2022/12/09 05:35:57;;;;;;;149.10;29.53;;;1.50;99.90;;;;;;4996450;28;20175;-82
2022/12/09 05:38:23;;;;;;;163.80;30.50;;;1.60;99.90;;;;;;4996335;28;20221;-81
2022/12/09 05:40:48;;;;;;;182.37;31.00;;;1.50;99.90;;;;;;4997025;28;20623;-82
2022/12/09 05:43:14;;;;;;;234.00;31.37;;;1.30;99.90;;;;;;5013194;28;20182;-81
2022/12/09 05:45:40;;;;;;;168.50;30.87;;;1.30;99.90;;;;;;5001332;28;20257;-81
2022/12/09 05:48:06;;;;;;;169.50;30.63;;;1.30;99.90;;;;;;5034424;28;20226;-81
2022/12/09 05:50:31;;;;;;;88.63;26.53;;;1.20;99.90;;;;;;5039336;28;20210;-82
2022/12/09 05:52:57;;;;;;;111.10;27.50;;;1.30;99.90;;;;;;5031710;28;20170;-83
2022/12/09 05:55:23;;;;;;;69.43;26.73;;;1.40;99.90;;;;;;5038433;28;20187;-78
2022/12/09 05:57:48;;;;;;;70.40;25.17;;;1.40;99.90;;;;;;5030155;28;20634;-79
2022/12/09 06:00:26;;;;;;;132.20;29.27;;;1.50;99.90;;;;;;5029001;28;20197;-78
2022/12/09 06:02:54;;;;;;;68.10;24.83;;;1.50;99.90;;;;;;5019417;28;20184;-80
2022/12/09 06:05:19;;;;;;;203.93;29.50;;;1.50;99.90;;;;;;5015609;28;20162;-81
2022/12/09 06:07:45;;;;;;;91.13;24.43;;;1.40;99.90;;;;;;5015661;28;20543;-81
2022/12/09 06:10:11;;;;;;;98.93;27.13;;;1.40;99.90;;;;;;4998169;28;20265;-81
2022/12/09 06:12:37;;;;;;;88.90;25.17;;;1.50;99.90;;;;;;5035108;28;20177;-80
2022/12/09 06:15:03;;;;;;;127.10;25.13;;;1.50;99.90;;;;;;5033182;28;20233;-79
2022/12/09 06:17:28;;;;;;;371.73;40.60;;;1.50;99.90;;;;;;5000146;28;20170;-81
2022/12/09 06:19:57;;;;;;;175.30;28.40;;;1.50;99.90;;;;;;4998129;28;20178;-80
2022/12/09 06:22:23;;;;;;;132.50;26.13;;;1.40;99.90;;;;;;5015580;28;20250;-81
2022/12/09 06:24:48;;;;;;;41.97;23.00;;;1.50;99.90;;;;;;5014097;28;20651;-82
2022/12/09 06:27:14;;;;;;;72.43;24.80;;;1.60;99.90;;;;;;5013872;28;20321;-79
2022/12/09 06:29:42;;;;;;;111.27;26.10;;;1.70;99.90;;;;;;4996797;28;20237;-81
2022/12/09 06:32:08;;;;;;;71.13;24.43;;;1.60;99.90;;;;;;5015154;28;20261;-82
2022/12/09 06:34:33;;;;;;;249.27;31.93;;;1.50;99.90;;;;;;5014477;28;20301;-80
2022/12/09 06:36:59;;;;;;;199.17;29.57;;;1.70;99.90;;;;;;4997012;28;20213;-80
2022/12/09 06:39:25;;;;;;;138.13;26.23;;;1.60;99.90;;;;;;5015637;28;20193;-79
2022/12/09 06:41:51;;;;;;;97.43;24.50;;;1.70;99.90;;;;;;5019619;28;20171;-81
2022/12/09 06:44:17;;;;;;;64.80;23.20;;;1.60;99.90;;;;;;5001580;28;20189;-80
2022/12/09 06:46:46;;;;;;;131.83;26.17;;;1.70;99.90;;;;;;5015386;28;20525;-82
2022/12/09 06:49:12;;;;;;;212.20;31.53;;;1.50;99.90;;;;;;4996558;28;20201;-80
2022/12/09 06:51:37;;;;;;;106.90;24.90;;;2.00;99.90;;;;;;5014277;28;20172;-81
2022/12/09 06:54:03;;;;;;;71.10;23.90;;;1.80;99.90;;;;;;5013975;28;20228;-82
2022/12/09 06:56:31;;;;;;;34.50;21.87;;;1.80;99.90;;;;;;5013474;28;21179;-81
2022/12/09 06:58:57;;;;;;;56.93;22.43;;;1.80;99.90;;;;;;5013581;28;20161;-81
2022/12/09 07:01:24;;;;;;;55.97;23.40;;;1.90;99.90;;;;;;5012378;28;20185;-80
2022/12/09 07:03:52;;;;;;;43.37;23.07;;;2.00;99.90;;;;;;5013860;28;20182;-81
2022/12/09 07:06:29;;;;;;;110.00;26.83;;;2.20;99.90;;;;;;5013428;28;20174;-81
2022/12/09 07:08:57;;;;;;;67.03;22.40;;;2.00;99.90;;;;;;5010698;28;20179;-79
2022/12/09 07:11:23;;;;;;;52.87;20.97;;;1.70;99.90;;;;;;4976378;28;20179;-79
2022/12/09 07:13:50;;;;;;;64.77;22.00;;;1.50;99.90;;;;;;4996030;28;20203;-86
2022/12/09 07:16:16;;;;;;;88.10;23.47;;;1.30;99.90;;;;;;4985814;28;20246;-82
2022/12/09 07:18:42;;;;;;;97.17;24.17;;;1.30;99.90;;;;;;4997094;28;20205;-87
2022/12/09 07:21:10;;;;;;;48.57;21.70;;;1.30;99.90;;;;;;4995090;28;20175;-84
2022/12/09 07:23:37;;;;;;;43.90;21.87;;;1.20;99.90;;;;;;4977252;28;20187;-82
2022/12/09 07:26:06;;;;;;;55.60;23.77;;;1.30;99.90;;;;;;4993422;28;20229;-81
2022/12/09 07:28:33;;;;;;;61.80;24.07;;;1.30;99.90;;;;;;4976166;28;20221;-81
2022/12/09 07:31:00;;;;;;;58.27;23.87;;;1.30;99.90;;;;;;4993086;28;20266;-82
2022/12/09 07:33:25;;;;;;;58.30;24.50;;;1.50;99.90;;;;;;5000041;28;20205;-82
2022/12/09 07:35:55;;;;;;;46.77;23.60;;;1.70;99.90;;;;;;4978568;28;20329;-83
2022/12/09 07:38:22;;;;;;;42.37;24.73;;;1.70;99.90;;;;;;5004619;28;20300;-84
2022/12/09 07:40:48;;;;;;;37.43;24.47;;;1.70;99.90;;;;;;5001256;28;20179;-82
2022/12/09 07:43:14;;;;;;;36.20;23.90;;;1.80;99.90;;;;;;4997403;28;20163;-82
2022/12/09 07:45:39;;;;;;;33.43;23.03;;;1.60;99.90;;;;;;5002161;28;20178;-83
2022/12/09 07:48:07;;;;;;;33.57;23.33;;;1.60;99.90;;;;;;4983944;28;20508;-85
2022/12/09 07:50:36;;;;;;;35.60;23.77;;;1.60;99.90;;;;;;5008958;28;20170;-84
2022/12/09 07:53:03;;;;;;;42.27;24.00;;;1.40;99.90;;;;;;5013621;28;20221;-85
2022/12/09 07:55:28;;;;;;;42.27;24.03;;;1.60;99.90;;;;;;5013866;28;20266;-84
2022/12/09 07:57:54;;;;;;;48.80;26.23;;;1.40;99.90;;;;;;5014030;28;20217;-84
2022/12/09 08:00:20;;;;;;;52.47;26.03;;;1.40;99.90;;;;;;5014549;28;20219;-84
2022/12/09 08:02:48;;;;;;;49.67;26.97;;;1.60;99.90;;;;;;5009604;28;20171;-84
2022/12/09 08:05:13;;;;;;;52.33;27.60;;;1.60;99.90;;;;;;5017085;28;20197;-83
2022/12/09 08:07:39;;;;;;;49.57;27.20;;;1.70;99.90;;;;;;5004206;28;20187;-85
2022/12/09 08:10:05;;;;;;;61.10;29.43;;;1.70;99.90;;;;;;4995865;28;20206;-84
2022/12/09 08:12:31;;;;;;;64.00;28.80;;;1.70;99.90;;;;;;4997805;28;20174;-85
2022/12/09 08:14:56;;;;;;;62.27;29.20;;;1.60;99.90;;;;;;4996855;28;20210;-81
2022/12/09 08:17:23;;;;;;;50.53;26.23;;;1.50;99.90;;;;;;5002332;28;20170;-80
2022/12/09 08:19:49;;;;;;;48.47;27.03;;;1.40;99.90;;;;;;5002099;28;20261;-81
2022/12/09 08:22:18;;;;;;;50.13;28.03;;;1.30;99.90;;;;;;5005664;28;20178;-84
2022/12/09 08:24:44;;;;;;;58.90;29.03;;;1.50;99.90;;;;;;5019668;28;20199;-81
2022/12/09 08:27:09;;;;;;;51.87;27.97;;;1.60;99.90;;;;;;5019775;28;20183;-81
2022/12/09 08:29:41;;;;;;;55.83;28.53;;;1.70;99.90;;;;;;5022967;28;20258;-83
2022/12/09 08:32:07;;;;;;;49.03;25.60;;;1.60;99.90;;;;;;5011541;28;20198;-82
2022/12/09 08:34:41;;;;;;;60.27;28.33;;;1.50;99.90;;;;;;5019130;28;20214;-85
2022/12/09 08:37:07;;;;;;;54.27;27.50;;;1.40;99.90;;;;;;5018784;28;20635;-83
2022/12/09 08:39:32;;;;;;;53.80;28.07;;;1.30;99.90;;;;;;5021832;28;20213;-79
2022/12/09 08:41:58;;;;;;;47.70;25.93;;;1.40;99.90;;;;;;5011664;28;20178;-79
2022/12/09 08:44:23;;;;;;;50.40;25.37;;;1.60;99.90;;;;;;5021601;28;20167;-83
2022/12/09 08:46:51;;;;;;;45.97;26.50;;;1.60;99.90;;;;;;5018553;28;20170;-82
2022/12/09 08:49:21;;;;;;;53.30;26.83;;;1.60;99.90;;;;;;4971678;28;20206;-80
2022/12/09 08:51:49;;;;;;;53.07;27.60;;;1.60;99.90;;;;;;4999004;28;20648;-84
2022/12/09 08:54:15;;;;;;;52.20;27.07;;;1.50;99.90;;;;;;5000671;28;20210;-83
2022/12/09 08:56:45;;;;;;;45.50;26.93;;;1.50;99.90;;;;;;4998682;28;20267;-81
2022/12/09 08:59:13;;;;;;;52.20;27.67;;;1.60;99.90;;;;;;4987871;28;20182;-81
2022/12/09 09:01:39;;;;;;;50.50;29.23;;;1.40;99.90;;;;;;4975208;28;20174;-82
2022/12/09 09:04:09;;;;;;;59.40;29.40;;;1.50;99.90;;;;;;5016486;28;20651;-81
2022/12/09 09:06:40;;;;;;;59.90;32.30;;;1.50;99.90;;;;;;5014799;28;20159;-79
2022/12/09 09:09:07;;;;;;;53.40;28.73;;;1.60;99.90;;;;;;5016290;28;20174;-83
2022/12/09 09:11:48;;;;;;;54.97;29.27;;;1.70;99.90;;;;;;4990665;28;20533;-83
2022/12/09 09:14:25;;;;;;;58.13;28.77;;;1.80;99.90;;;;;;5003021;28;20218;-85
2022/12/09 09:16:52;;;;;;;58.23;28.33;;;2.00;99.90;;;;;;4999002;28;20158;-84
2022/12/09 09:19:24;;;;;;;53.83;28.50;;;1.90;99.90;;;;;;5002135;28;20164;-82
2022/12/09 09:21:51;;;;;;;48.63;26.40;;;2.10;99.90;;;;;;4999392;28;20171;-84
2022/12/09 09:24:19;;;;;;;55.90;26.27;;;1.90;99.90;;;;;;5015277;28;20188;-85
2022/12/09 09:26:46;;;;;;;44.93;24.40;;;2.00;99.90;;;;;;5017044;28;20174;-80
2022/12/09 09:29:14;;;;;;;49.10;24.30;;;1.70;99.90;;;;;;5018262;28;20266;-80
2022/12/09 09:31:39;;;;;;;46.73;25.17;;;1.70;99.90;;;;;;4999618;28;20213;-80
2022/12/09 09:34:05;;;;;;;49.37;25.53;;;1.70;99.90;;;;;;5017703;28;20210;-83
2022/12/09 09:36:31;;;;;;;45.00;23.27;;;1.70;99.90;;;;;;5019805;28;20188;-83
2022/12/09 09:38:57;;;;;;;40.60;23.23;;;1.70;99.90;;;;;;5001959;28;20202;-80
2022/12/09 09:41:47;;;;;;;43.57;22.77;;;1.60;99.90;;;;;;5008556;28;20186;-80
2022/12/09 09:44:38;;;;;;;40.37;23.20;;;1.80;99.90;;;;;;5028826;28;20201;-82
2022/12/09 09:47:24;;;;;;;47.33;24.50;;;1.90;99.90;;;;;;5019017;28;20178;-81
2022/12/09 09:50:29;;;;;;;42.77;23.53;;;2.10;99.90;;;;;;5018805;28;20174;-82
2022/12/09 09:52:56;;;;;;;46.23;25.10;;;2.10;99.90;;;;;;4990571;28;20186;-81
2022/12/09 09:56:01;;;;;;;33.63;19.43;;;2.10;99.90;;;;;;5004324;28;20276;-81
2022/12/09 09:58:32;;;;;;;42.27;22.97;;;2.00;99.90;;;;;;5014708;28;20346;-82
2022/12/09 10:01:17;;;;;;;35.20;20.57;;;2.00;99.90;;;;;;5015105;28;20185;-81
2022/12/09 10:04:09;;;;;;;35.40;21.17;;;2.10;99.90;;;;;;4997536;28;20727;-81
2022/12/09 10:06:53;;;;;;;36.87;21.13;;;2.10;99.90;;;;;;4997279;28;20182;-82
2022/12/09 10:09:27;;;;;;;31.00;19.17;;;2.00;99.90;;;;;;5014936;28;20571;-82
2022/12/09 10:12:19;;;;;;;30.80;18.63;;;2.20;99.90;;;;;;5000426;28;20174;-80
2022/12/09 10:14:58;;;;;;;33.17;18.73;;;2.10;99.90;;;;;;4985835;28;20597;-80
2022/12/09 10:17:28;;;;;;;32.53;20.23;;;2.10;99.90;;;;;;4997331;28;20174;-81
2022/12/09 10:20:08;;;;;;;40.17;22.83;;;2.20;99.90;;;;;;4983974;28;20202;-81
2022/12/09 10:22:42;;;;;;;34.17;21.77;;;2.30;99.90;;;;;;4994741;28;20217;-82
2022/12/09 10:25:16;;;;;;;39.30;22.13;;;2.60;99.90;;;;;;4995025;28;20175;-81
2022/12/09 10:27:59;;;;;;;34.47;21.50;;;2.80;99.90;;;;;;4993197;28;20182;-81
2022/12/09 10:30:25;;;;;;;29.10;19.67;;;2.80;99.90;;;;;;5001644;28;20178;-81
2022/12/09 10:32:52;;;;;;;35.70;19.63;;;2.80;99.90;;;;;;4996828;28;20174;-82
2022/12/09 10:35:21;;;;;;;30.70;19.47;;;2.70;98.90;;;;;;4996336;28;20301;-82
2022/12/09 10:37:50;;;;;;;30.77;19.53;;;2.80;98.70;;;;;;4996750;28;20275;-79
2022/12/09 10:40:24;;;;;;;34.33;20.63;;;3.10;98.70;;;;;;4988376;28;20177;-81
2022/12/09 10:45:58;;;;;;;27.43;17.60;;;3.40;95.60;;;;;;5014943;28;20184;-83
2022/12/09 10:48:51;;;;;;;32.30;19.03;;;2.80;91.90;;;;;;5013650;28;20213;-81
2022/12/09 10:51:37;;;;;;;30.57;18.30;;;2.70;94.50;;;;;;5014011;28;20277;-80
2022/12/09 10:54:09;;;;;;;32.53;20.33;;;2.70;95.50;;;;;;5014146;28;20210;-84
2022/12/09 10:56:38;;;;;;;32.57;19.63;;;2.70;95.10;;;;;;5013333;28;20198;-84
2022/12/09 10:59:08;;;;;;;35.03;20.83;;;2.80;94.60;;;;;;5020151;28;20174;-82
2022/12/09 11:02:01;;;;;;;31.80;20.07;;;2.90;94.20;;;;;;5021335;28;20178;-83
2022/12/09 11:04:28;;;;;;;31.10;19.47;;;3.00;93.30;;;;;;5001211;28;20186;-80
2022/12/09 11:06:57;;;;;;;33.87;20.53;;;2.80;92.50;;;;;;5016640;28;20214;-78
2022/12/09 11:09:38;;;;;;;33.70;20.50;;;2.70;93.00;;;;;;5028426;28;20167;-81
2022/12/09 11:12:39;;;;;;;33.47;20.27;;;2.70;93.30;;;;;;5017200;28;20174;-83
2022/12/09 11:15:24;;;;;;;31.03;19.40;;;2.60;93.80;;;;;;4934967;29;20204;-84
2022/12/09 11:17:57;;;;;;;37.20;21.20;;;2.60;94.80;;;;;;4991434;28;20578;-81
2022/12/09 11:20:27;;;;;;;31.00;20.53;;;3.00;94.30;;;;;;5011600;28;20278;-82
2022/12/09 11:23:30;;;;;;;32.83;21.13;;;3.10;91.40;;;;;;5003483;28;20182;-82
2022/12/09 11:26:04;;;;;;;31.07;20.63;;;3.10;89.60;;;;;;4918368;29;20597;-80
2022/12/09 11:28:29;;;;;;;41.40;22.13;;;3.20;87.20;;;;;;4983540;28;20645;-82
2022/12/09 11:31:20;;;;;;;33.03;21.33;;;3.30;85.80;;;;;;5004658;28;20205;-84
2022/12/09 11:33:54;;;;;;;31.77;21.87;;;3.30;86.40;;;;;;5031201;28;20213;-78
2022/12/09 11:36:32;;;;;;;32.67;21.57;;;3.40;86.80;;;;;;5023626;28;20200;-81
2022/12/09 11:39:16;;;;;;;37.40;24.20;;;3.40;81.00;;;;;;5016219;28;20212;-81
2022/12/09 11:44:35;;;;;;;35.97;22.50;;;3.50;76.80;;;;;;5015518;28;20174;-81
2022/12/09 11:47:09;;;;;;;36.17;22.90;;;3.50;78.10;;;;;;5014231;28;20212;-80
2022/12/09 11:49:55;;;;;;;36.67;22.80;;;3.60;79.00;;;;;;5015181;28;20237;-80
2022/12/09 11:52:24;;;;;;;36.60;22.77;;;3.60;77.00;;;;;;5021355;28;20257;-81
2022/12/09 11:54:53;;;;;;;36.33;22.37;;;3.70;75.50;;;;;;5029466;28;20222;-80
2022/12/09 11:57:55;;;;;;;33.43;21.27;;;3.40;76.00;;;;;;4997985;28;20183;-84
2022/12/09 12:00:52;;;;;;;32.13;21.17;;;3.30;81.00;;;;;;4980691;28;20178;-83
2022/12/09 12:03:38;;;;;;;30.73;19.30;;;3.10;84.20;;;;;;4999915;28;20183;-77
2022/12/09 12:06:10;;;;;;;30.60;20.33;;;3.10;86.20;;;;;;5000576;28;20171;-81
2022/12/09 12:08:43;;;;;;;32.03;19.23;;;3.10;87.90;;;;;;4992511;28;20269;-81
2022/12/09 12:11:16;;;;;;;30.57;20.43;;;3.20;88.50;;;;;;4995855;28;20167;-82
2022/12/09 12:13:46;;;;;;;29.17;19.33;;;3.20;86.50;;;;;;5000415;28;20202;-84
2022/12/09 12:16:38;;;;;;;30.80;20.33;;;3.30;84.40;;;;;;4996790;28;20528;-82
2022/12/09 12:19:11;;;;;;;30.43;19.63;;;3.50;83.40;;;;;;5016122;28;20222;-80
2022/12/09 12:22:12;;;;;;;33.00;21.30;;;3.40;80.60;;;;;;5016270;28;20585;-80
2022/12/09 12:25:09;;;;;;;32.23;20.90;;;3.50;81.50;;;;;;4980526;28;20167;-81
2022/12/09 12:27:46;;;;;;;30.67;20.30;;;3.80;81.10;;;;;;4978459;28;20191;-78
2022/12/09 12:30:22;;;;;;;31.70;20.87;;;3.80;77.80;;;;;;4993265;28;20167;-78
2022/12/09 12:33:05;;;;;;;34.83;20.63;;;3.90;75.60;;;;;;5025891;28;20198;-80
2022/12/09 12:36:05;;;;;;;29.87;19.37;;;4.10;73.50;;;;;;5035617;28;20305;-81
2022/12/09 12:39:13;;;;;;;32.30;19.57;;;3.80;70.80;;;;;;5003154;28;20211;-81
2022/12/09 12:42:13;;;;;;;33.30;19.97;;;3.40;78.70;;;;;;5014084;28;20646;-80
2022/12/09 12:48:28;;;;;;;35.77;21.70;;;2.80;91.10;;;;;;5020725;28;20158;-80
2022/12/09 12:51:29;;;;;;;35.57;22.53;;;3.10;92.80;;;;;;5001290;28;20182;-82
2022/12/09 12:54:21;;;;;;;33.27;22.07;;;3.10;91.90;;;;;;4979707;28;20213;-81
2022/12/09 12:57:17;;;;;;;32.00;21.07;;;2.90;91.50;;;;;;5014092;28;20213;-79
2022/12/09 12:59:56;;;;;;;32.50;20.33;;;2.90;93.50;;;;;;5018292;28;20186;-81
2022/12/09 13:02:38;;;;;;;35.60;22.03;;;2.70;94.10;;;;;;5016978;28;20162;-80
2022/12/09 13:05:19;;;;;;;34.03;21.47;;;2.60;95.70;;;;;;5016776;28;20269;-79
2022/12/09 13:08:17;;;;;;;32.43;19.70;;;2.60;96.00;;;;;;5017956;28;20175;-81
2022/12/09 13:10:51;;;;;;;31.63;20.03;;;2.60;96.10;;;;;;5018280;28;20175;-84